createdAt,value
2022-11-20T00:07:00.621Z,2650.84127
2022-11-20T00:22:02.540Z,2576.92359
2022-11-20T00:37:04.630Z,2642.99855
2022-11-20T00:52:06.534Z,2596.89974
2022-11-20T01:07:08.502Z,2571.97748
2022-11-20T01:22:10.474Z,2479.18645
2022-11-20T01:37:12.370Z,2386.46534
2022-11-20T01:52:14.272Z,2298.45677
2022-11-20T02:07:16.228Z,2263.51402
2022-11-20T02:22:18.128Z,2196.72182
2022-11-20T02:37:20.019Z,2154.34134
2022-11-20T02:52:21.938Z,2098.66926
2022-11-20T03:07:23.930Z,1967.69507
2022-11-20T03:22:25.849Z,1875.43787
2022-11-20T03:37:27.775Z,1885.99628
2022-11-20T03:52:29.686Z,2022.64201
2022-11-20T04:07:31.616Z,2069.49857
2022-11-20T04:22:33.555Z,1936.41668
2022-11-20T04:37:35.488Z,2002.99004
2022-11-20T04:52:37.388Z,2163.03521
2022-11-20T05:07:39.338Z,2071.09787
2022-11-20T05:22:41.277Z,1982.24902
2022-11-20T05:37:43.209Z,2225.91413
2022-11-20T05:52:45.158Z,2225.91413
2022-11-20T06:07:47.169Z,2177.0923
2022-11-20T06:22:49.061Z,2369.58495
2022-11-20T06:37:50.991Z,2365.4021
2022-11-20T06:52:52.885Z,2718.05326
2022-11-20T07:07:54.774Z,2591.87673
2022-11-20T07:22:56.649Z,2645.60763
2022-11-20T07:37:58.560Z,2535.47828
2022-11-20T07:53:00.469Z,2431.94244
2022-11-20T08:08:02.369Z,2637.79579
2022-11-20T08:23:04.313Z,2576.92359
2022-11-20T08:38:06.277Z,2493.02377
2022-11-20T08:53:08.204Z,2589.3725
2022-11-20T09:08:10.165Z,2601.94227
2022-11-20T09:23:12.072Z,2530.68984
2022-11-20T09:38:13.996Z,2821.05316
2022-11-20T09:53:15.893Z,2791.66719
2022-11-20T10:08:17.959Z,2841.99416
2022-11-20T10:23:25.433Z,2824.02582
2022-11-20T10:38:27.781Z,2835.97936
2022-11-20T10:53:29.697Z,2751.54056
2022-11-20T11:08:31.651Z,2622.30972
2022-11-20T11:23:33.545Z,2656.09566
2022-11-20T11:38:35.560Z,2648.22186
2022-11-20T11:53:37.438Z,2540.28488
2022-11-20T12:08:39.437Z,2447.4891
2022-11-20T12:23:41.398Z,2591.87673
2022-11-20T12:38:43.342Z,2617.18802
2022-11-20T12:53:45.283Z,2502.33478
2022-11-20T13:08:47.094Z,2612.08629
2022-11-20T13:23:48.918Z,2612.08629
2022-11-20T13:38:50.777Z,2490.70683
2022-11-20T13:53:52.617Z,1555.42707
2022-11-20T14:08:54.653Z,1723.47316
2022-11-20T14:23:56.561Z,1838.13493
2022-11-20T14:38:58.495Z,2047.3649
2022-11-20T14:54:00.387Z,552.70956
2022-11-20T15:09:02.298Z,643.58768
2022-11-20T15:24:04.202Z,1009.03664
2022-11-20T15:39:06.153Z,788.23579
2022-11-20T15:54:08.108Z,801.4359
2022-11-20T16:09:10.049Z,1131.75726
2022-11-20T16:24:11.977Z,1344.03261
2022-11-20T16:39:15.829Z,1472.52799
2022-11-20T16:54:21.624Z,1420.99733
2022-11-20T17:09:23.619Z,1509.00953
2022-11-20T17:24:27.806Z,1598.09232
2022-11-20T17:39:33.463Z,1711.36703
2022-11-20T17:54:35.360Z,1839.39652
2022-11-20T18:09:37.226Z,2018.07279
2022-11-20T18:24:39.143Z,2168.28529
2022-11-20T18:39:41.023Z,2288.64269
2022-11-20T18:54:42.927Z,2340.61186
2022-11-20T19:09:44.845Z,2397.13826
2022-11-20T19:24:46.788Z,2454.21297
2022-11-20T19:39:48.697Z,2472.32524
2022-11-20T19:54:50.699Z,2483.78179
2022-11-20T20:09:52.631Z,2637.79579
2022-11-20T20:24:54.578Z,2693.46786
2022-11-20T20:39:56.488Z,2712.55113
2022-11-20T20:54:58.422Z,2878.62566
2022-11-20T21:10:00.305Z,2981.09063
2022-11-20T21:25:02.232Z,3078.69089
2022-11-20T21:40:04.119Z,3154.79742
2022-11-20T21:55:06.051Z,3182.89835
2022-11-20T22:10:07.953Z,3207.66057
2022-11-20T22:25:10.036Z,3223.09129
2022-11-20T22:40:11.947Z,3258.35915
2022-11-20T22:55:16.389Z,3240.62926
2022-11-20T23:10:18.549Z,3236.71546
2022-11-20T23:25:20.431Z,2680.00052
2022-11-20T23:40:22.459Z,2785.86331
2022-11-20T23:55:24.401Z,2821.05316
